createdAt,value
2023-08-11T00:02:06.269Z,96775.48
2023-08-11T00:04:33.029Z,96771.58
2023-08-11T00:06:59.689Z,96770.34
2023-08-11T00:09:27.074Z,96770.35
2023-08-11T00:11:53.862Z,96769.14
2023-08-11T00:14:20.564Z,96767.13
2023-08-11T00:16:47.392Z,96765.38
2023-08-11T00:19:14.805Z,96768.39
2023-08-11T00:21:42.031Z,96771.67
2023-08-11T00:24:08.683Z,96770.59
2023-08-11T00:26:35.707Z,96773.02
2023-08-11T00:29:03.407Z,96776.46
2023-08-11T00:31:30.193Z,96777.90
2023-08-11T00:33:57.191Z,96779.96
2023-08-11T00:36:24.616Z,96781.78
2023-08-11T00:38:51.313Z,96779.33
2023-08-11T00:41:18.088Z,96780.70
2023-08-11T00:43:44.774Z,96778.08
2023-08-11T00:46:13.320Z,96771.56
2023-08-11T00:48:43.561Z,96776.68
2023-08-11T00:51:14.384Z,96772.84
2023-08-11T00:53:43.049Z,96773.64
2023-08-11T00:56:10.717Z,96771.59
2023-08-11T00:58:38.102Z,96773.54
2023-08-11T01:01:05.246Z,96771.39
2023-08-11T01:03:34.986Z,96769.39
2023-08-11T01:06:04.839Z,96771.46
2023-08-11T01:08:53.223Z,96769.25
2023-08-11T01:11:59.946Z,96769.98
2023-08-11T01:14:41.315Z,96767.76
2023-08-11T01:17:11.785Z,96767.26
2023-08-11T01:19:38.921Z,96766.00
2023-08-11T01:22:12.278Z,96766.02
2023-08-11T01:24:41.307Z,96764.36
2023-08-11T01:27:08.252Z,96764.58
2023-08-11T01:29:35.076Z,96764.70
2023-08-11T01:32:03.831Z,96767.47
2023-08-11T01:34:30.566Z,96765.23
2023-08-11T01:37:01.555Z,96769.06
2023-08-11T01:39:29.173Z,96767.08
2023-08-11T01:41:56.439Z,96766.12
2023-08-11T01:44:25.838Z,96767.16
2023-08-11T01:46:56.390Z,96765.79
2023-08-11T01:49:25.374Z,96768.27
2023-08-11T01:51:52.389Z,96764.23
2023-08-11T01:54:20.477Z,96762.34
2023-08-11T01:56:47.690Z,96758.26
2023-08-11T01:59:15.903Z,96763.08
2023-08-11T02:01:44.275Z,96761.09
2023-08-11T02:04:11.558Z,96759.11
2023-08-11T02:06:38.616Z,96760.96
2023-08-11T02:09:08.673Z,96761.23
2023-08-11T02:11:37.744Z,96764.56
2023-08-11T02:14:05.756Z,96761.34
2023-08-11T02:16:34.116Z,96763.80
2023-08-11T02:19:00.818Z,96761.60
2023-08-11T02:21:28.903Z,96766.96
2023-08-11T02:23:55.779Z,96765.83
2023-08-11T02:26:23.048Z,96762.69
2023-08-11T02:28:50.047Z,96766.98
2023-08-11T02:31:18.529Z,96766.27
2023-08-11T02:33:45.316Z,96764.72
2023-08-11T02:36:11.994Z,96772.86
2023-08-11T02:38:39.052Z,96770.09
2023-08-11T02:41:05.828Z,96775.35
2023-08-11T02:43:37.403Z,96771.64
2023-08-11T02:46:07.727Z,96775.14
2023-08-11T02:48:34.506Z,96775.21
2023-08-11T02:51:04.074Z,96773.81
2023-08-11T02:53:31.959Z,96775.48
2023-08-11T02:56:01.710Z,96772.26
2023-08-11T02:58:28.814Z,96773.10
2023-08-11T03:00:55.611Z,96777.94
2023-08-11T03:03:22.424Z,96777.11
2023-08-11T03:05:49.483Z,96776.52
2023-08-11T03:08:16.273Z,96779.23
2023-08-11T03:10:55.461Z,96784.51
2023-08-11T03:13:24.231Z,96786.86
2023-08-11T03:15:52.639Z,96784.93
2023-08-11T03:18:20.069Z,96787.54
2023-08-11T03:20:47.304Z,96790.42
2023-08-11T03:23:14.439Z,96789.55
2023-08-11T03:25:41.175Z,96789.17
2023-08-11T03:28:08.142Z,96787.49
2023-08-11T03:30:38.650Z,96791.13
2023-08-11T03:33:05.414Z,96791.20
2023-08-11T03:35:41.416Z,96789.73
2023-08-11T03:38:08.035Z,96786.98
2023-08-11T03:40:35.015Z,96785.98
2023-08-11T03:43:01.834Z,96786.27
2023-08-11T03:45:29.609Z,96791.27
2023-08-11T03:47:56.413Z,96794.46
2023-08-11T03:50:24.244Z,96793.89
2023-08-11T03:52:51.110Z,96795.13
2023-08-11T03:55:18.346Z,96793.19
2023-08-11T03:57:46.424Z,96793.21
2023-08-11T04:00:15.721Z,96795.90
2023-08-11T04:02:44.391Z,96799.27
2023-08-11T04:05:13.397Z,96802.54
2023-08-11T04:07:40.345Z,96806.03
2023-08-11T04:10:11.121Z,96802.30
2023-08-11T04:12:38.268Z,96802.47
2023-08-11T04:15:06.392Z,96799.08
2023-08-11T04:17:34.289Z,96798.52
2023-08-11T04:20:01.433Z,96796.86
2023-08-11T04:22:38.730Z,96794.95
2023-08-11T04:25:09.863Z,96799.66
2023-08-11T04:27:39.792Z,96806.32
2023-08-11T04:30:08.556Z,96807.46
2023-08-11T04:32:35.438Z,96805.86
2023-08-11T04:35:05.643Z,96808.14
2023-08-11T04:37:33.632Z,96806.33
2023-08-11T04:40:05.078Z,96808.80
2023-08-11T04:42:32.156Z,96809.65
2023-08-11T04:44:59.261Z,96810.02
2023-08-11T04:47:26.128Z,96816.98
2023-08-11T04:49:53.211Z,96816.13
2023-08-11T04:52:20.166Z,96814.48
2023-08-11T04:54:46.756Z,96816.77
2023-08-11T04:57:13.994Z,96820.95
2023-08-11T04:59:41.527Z,96824.05
2023-08-11T05:02:08.404Z,96819.90
2023-08-11T05:04:35.534Z,96821.93
2023-08-11T05:07:02.325Z,96824.48
2023-08-11T05:09:28.955Z,96822.45
2023-08-11T05:11:55.838Z,96830.62
2023-08-11T05:14:23.681Z,96831.99
2023-08-11T05:16:50.429Z,96824.00
2023-08-11T05:19:17.208Z,96830.80
2023-08-11T05:21:43.939Z,96830.30
2023-08-11T05:24:11.263Z,96833.48
2023-08-11T05:26:38.830Z,96831.89
2023-08-11T05:29:07.202Z,96833.60
2023-08-11T05:31:34.862Z,96831.83
2023-08-11T05:34:01.610Z,96832.98
2023-08-11T05:36:28.313Z,96828.16
2023-08-11T05:38:55.378Z,96824.67
2023-08-11T05:41:22.481Z,96820.35
2023-08-11T05:43:49.147Z,96821.85
2023-08-11T05:46:15.985Z,96821.98
2023-08-11T05:48:48.489Z,96823.31
2023-08-11T05:51:16.576Z,96823.28
2023-08-11T05:53:43.814Z,96822.65
2023-08-11T05:56:10.573Z,96825.73
2023-08-11T05:58:37.259Z,96822.88
2023-08-11T06:01:04.229Z,96822.17
2023-08-11T06:03:31.387Z,96822.16
2023-08-11T06:06:02.229Z,96822.86
2023-08-11T06:08:29.000Z,96824.51
2023-08-11T06:10:57.080Z,96823.88
2023-08-11T06:13:24.231Z,96822.44
2023-08-11T06:15:51.091Z,96824.55
2023-08-11T06:18:18.444Z,96823.77
2023-08-11T06:20:45.573Z,96823.33
2023-08-11T06:23:12.644Z,96825.20
2023-08-11T06:25:39.682Z,96826.70
2023-08-11T06:28:07.762Z,96828.24
2023-08-11T06:30:34.895Z,96834.32
2023-08-11T06:33:01.852Z,96831.53
2023-08-11T06:35:28.568Z,96832.59
2023-08-11T06:37:55.282Z,96828.90
2023-08-11T06:40:22.013Z,96829.27
2023-08-11T06:42:49.480Z,96828.27
2023-08-11T06:45:16.132Z,96835.68
2023-08-11T06:47:42.784Z,96831.14
2023-08-11T06:50:09.989Z,96833.29
2023-08-11T06:52:36.710Z,96830.95
2023-08-11T06:55:03.824Z,96833.59
2023-08-11T06:57:30.754Z,96836.33
2023-08-11T06:59:58.233Z,96837.23
2023-08-11T07:02:25.052Z,96835.13
2023-08-11T07:04:51.789Z,96838.11
2023-08-11T07:07:18.412Z,96837.39
2023-08-11T07:09:45.123Z,96837.03
2023-08-11T07:12:12.192Z,96839.23
2023-08-11T07:14:39.774Z,96839.05
2023-08-11T07:17:06.799Z,96841.46
2023-08-11T07:19:33.753Z,96838.20
2023-08-11T07:22:01.054Z,96840.25
2023-08-11T07:24:27.809Z,96841.08
2023-08-11T07:26:54.519Z,96842.30
2023-08-11T07:29:21.149Z,96846.59
2023-08-11T07:31:47.793Z,96848.52
2023-08-11T07:34:14.526Z,96849.54
2023-08-11T07:36:41.423Z,96850.88
2023-08-11T07:39:21.892Z,96853.08
2023-08-11T07:41:53.037Z,96851.36
2023-08-11T07:44:19.856Z,96852.36
2023-08-11T07:46:46.647Z,96852.15
2023-08-11T07:49:13.636Z,96848.14
2023-08-11T07:51:41.527Z,96846.61
2023-08-11T07:54:08.350Z,96847.44
2023-08-11T07:56:35.198Z,96848.64
2023-08-11T07:59:02.633Z,96847.41
2023-08-11T08:01:30.405Z,96844.71
2023-08-11T08:04:01.530Z,96847.29
2023-08-11T08:06:28.302Z,96846.64
2023-08-11T08:08:55.178Z,96849.81
2023-08-11T08:11:21.922Z,96850.17
2023-08-11T08:13:48.662Z,96846.27
2023-08-11T08:16:15.605Z,96846.16
2023-08-11T08:18:42.762Z,96843.73
2023-08-11T08:21:12.385Z,96845.88
2023-08-11T08:23:39.242Z,96845.95
2023-08-11T08:26:05.928Z,96844.69
2023-08-11T08:28:34.425Z,96847.08
2023-08-11T08:31:01.789Z,96849.98
2023-08-11T08:33:28.638Z,96852.50
2023-08-11T08:36:03.035Z,96850.84
2023-08-11T08:38:29.890Z,96852.54
2023-08-11T08:40:58.458Z,96853.51
2023-08-11T08:43:26.026Z,96857.72
2023-08-11T08:45:53.732Z,96859.54
2023-08-11T08:48:26.486Z,96860.52
2023-08-11T08:50:54.399Z,96856.96
2023-08-11T08:53:21.568Z,96856.88
2023-08-11T08:55:48.326Z,96854.84
2023-08-11T08:58:16.654Z,96854.17
2023-08-11T09:00:43.880Z,96857.89
2023-08-11T09:03:11.993Z,96858.63
2023-08-11T09:05:39.078Z,96858.84
2023-08-11T09:08:06.279Z,96857.11
2023-08-11T09:10:37.197Z,96856.59
2023-08-11T09:13:04.301Z,96857.64
2023-08-11T09:15:31.556Z,96859.96
2023-08-11T09:17:59.295Z,96863.80
2023-08-11T09:20:27.556Z,96867.05
2023-08-11T09:22:54.356Z,96864.67
2023-08-11T09:25:21.079Z,96868.62
2023-08-11T09:30:34.661Z,96867.43
2023-08-11T09:33:04.796Z,96867.96
2023-08-11T09:35:33.746Z,96863.12
2023-08-11T09:38:02.040Z,96864.13
2023-08-11T09:40:30.187Z,96868.13
2023-08-11T09:43:00.562Z,96867.34
2023-08-11T09:45:31.463Z,96868.34
2023-08-11T09:47:59.528Z,96865.64
2023-08-11T09:50:29.373Z,96869.26
2023-08-11T09:53:00.344Z,96867.23
2023-08-11T09:55:31.136Z,96864.17
2023-08-11T09:58:00.982Z,96864.92
2023-08-11T10:00:31.929Z,96866.38
2023-08-11T10:03:06.450Z,96860.73
2023-08-11T10:05:40.840Z,96858.51
2023-08-11T10:08:15.273Z,96856.74
2023-08-11T10:10:44.236Z,96855.21
2023-08-11T10:13:27.809Z,96852.63
2023-08-11T10:15:57.228Z,96850.61
2023-08-11T10:18:26.051Z,96851.79
2023-08-11T10:20:58.017Z,96852.67
2023-08-11T10:23:28.864Z,96855.95
2023-08-11T10:25:57.083Z,96854.73
2023-08-11T10:28:25.491Z,96850.28
2023-08-11T10:31:06.568Z,96848.66
2023-08-11T10:33:35.284Z,96849.18
2023-08-11T10:36:03.873Z,96847.96
2023-08-11T10:38:34.221Z,96848.05
2023-08-11T10:41:05.157Z,96845.48
2023-08-11T10:43:44.388Z,96846.86
2023-08-11T10:46:28.489Z,96847.82
2023-08-11T10:49:06.003Z,96848.79
2023-08-11T10:51:39.006Z,96849.78
2023-08-11T10:54:12.360Z,96843.05
2023-08-11T10:56:42.764Z,96843.58
2023-08-11T10:59:19.090Z,96843.41
2023-08-11T11:01:49.813Z,96844.00
2023-08-11T11:04:19.497Z,96843.14
2023-08-11T11:06:49.809Z,96841.19
2023-08-11T11:09:20.521Z,96842.02
2023-08-11T11:11:52.500Z,96840.44
2023-08-11T11:14:20.909Z,96842.87
2023-08-11T11:16:49.215Z,96837.33
2023-08-11T11:19:17.365Z,96835.96
2023-08-11T11:21:46.841Z,96829.83
2023-08-11T11:24:16.454Z,96832.81
2023-08-11T11:26:44.538Z,96830.29
2023-08-11T11:29:13.312Z,96832.27
2023-08-11T11:31:42.140Z,96834.64
2023-08-11T11:34:10.380Z,96831.83
2023-08-11T11:36:38.580Z,96831.27
2023-08-11T11:39:08.931Z,96832.80
2023-08-11T11:41:37.013Z,96829.35
2023-08-11T11:44:05.506Z,96831.09
2023-08-11T11:46:34.571Z,96828.48
2023-08-11T11:49:12.500Z,96824.89
2023-08-11T11:51:44.378Z,96826.52
2023-08-11T11:54:12.390Z,96827.11
2023-08-11T11:56:47.141Z,96830.77
2023-08-11T11:59:22.681Z,96832.77
2023-08-11T12:01:51.586Z,96834.78
2023-08-11T12:04:19.876Z,96834.75
2023-08-11T12:06:47.974Z,96833.08
2023-08-11T12:09:16.016Z,96836.48
2023-08-11T12:11:44.247Z,96835.32
2023-08-11T12:14:13.146Z,96833.24
2023-08-11T12:16:45.289Z,96833.31
2023-08-11T12:19:13.798Z,96832.44
2023-08-11T12:21:43.837Z,96832.47
2023-08-11T12:24:14.510Z,96835.48
2023-08-11T12:26:42.849Z,96835.26
2023-08-11T12:29:10.909Z,96833.96
2023-08-11T12:31:39.441Z,96829.83
2023-08-11T12:34:07.469Z,96827.23
2023-08-11T12:36:35.568Z,96826.48
2023-08-11T12:39:04.396Z,96826.61
2023-08-11T12:41:32.449Z,96826.45
2023-08-11T12:44:00.503Z,96827.23
2023-08-11T12:46:30.707Z,96824.02
2023-08-11T12:48:58.789Z,96823.80
2023-08-11T12:51:26.933Z,96827.86
2023-08-11T12:53:54.934Z,96826.27
2023-08-11T12:56:23.018Z,96826.67
2023-08-11T12:58:51.101Z,96832.51
2023-08-11T13:01:19.566Z,96835.52
2023-08-11T13:03:47.894Z,96830.73
2023-08-11T13:06:16.272Z,96824.64
2023-08-11T13:08:44.754Z,96824.60
2023-08-11T13:11:12.865Z,96825.34
2023-08-11T13:13:40.825Z,96820.73
2023-08-11T13:16:09.607Z,96818.73
2023-08-11T13:18:37.749Z,96821.77
2023-08-11T13:21:05.834Z,96824.63
2023-08-11T13:23:34.780Z,96820.81
2023-08-11T13:26:03.916Z,96819.13
2023-08-11T13:28:32.054Z,96822.70
2023-08-11T13:31:00.568Z,96822.86
2023-08-11T13:33:28.555Z,96818.45
2023-08-11T13:35:56.550Z,96818.19
2023-08-11T13:38:27.583Z,96820.85
2023-08-11T13:40:58.809Z,96824.09
2023-08-11T13:43:27.248Z,96821.04
2023-08-11T13:45:59.430Z,96819.83
2023-08-11T13:48:31.800Z,96817.38
2023-08-11T13:51:00.026Z,96816.92
2023-08-11T13:53:28.111Z,96818.96
2023-08-11T13:55:56.204Z,96818.36
2023-08-11T13:58:25.040Z,96817.48
2023-08-11T14:00:53.233Z,96817.83
2023-08-11T14:03:21.424Z,96817.70
2023-08-11T14:05:49.551Z,96813.61
2023-08-11T14:08:17.696Z,96815.41
2023-08-11T14:10:45.833Z,96810.92
2023-08-11T14:13:14.003Z,96811.66
2023-08-11T14:15:42.708Z,96810.56
2023-08-11T14:18:11.702Z,96811.86
2023-08-11T14:20:39.986Z,96814.02
2023-08-11T14:23:08.250Z,96812.79
2023-08-11T14:25:37.521Z,96812.53
2023-08-11T14:28:05.718Z,96810.54
2023-08-11T14:30:34.422Z,96812.48
2023-08-11T14:33:02.604Z,96811.19
2023-08-11T14:35:30.906Z,96810.19
2023-08-11T14:37:59.854Z,96810.89
2023-08-11T14:40:28.130Z,96810.48
2023-08-11T14:42:56.303Z,96814.04
2023-08-11T14:45:24.972Z,96810.56
2023-08-11T14:47:53.168Z,96806.80
2023-08-11T14:50:21.347Z,96808.94
2023-08-11T14:52:49.480Z,96807.63
2023-08-11T14:55:18.285Z,96810.67
2023-08-11T14:57:46.376Z,96814.29
2023-08-11T15:00:15.210Z,96814.39
2023-08-11T15:02:43.455Z,96814.88
2023-08-11T15:05:11.646Z,96812.59
2023-08-11T15:07:39.762Z,96808.05
2023-08-11T15:10:08.779Z,96809.84
2023-08-11T15:12:36.912Z,96808.73
2023-08-11T15:15:06.268Z,96811.56
2023-08-11T15:17:34.452Z,96809.54
2023-08-11T15:20:03.641Z,96806.86
2023-08-11T15:22:32.177Z,96805.87
2023-08-11T15:25:02.744Z,96803.41
2023-08-11T15:27:34.155Z,96804.69
2023-08-11T15:30:03.732Z,96808.23
2023-08-11T15:32:31.930Z,96813.73
2023-08-11T15:35:00.013Z,96814.17
2023-08-11T15:37:28.058Z,96812.27
2023-08-11T15:39:56.948Z,96810.95
2023-08-11T15:42:24.990Z,96811.80
2023-08-11T15:44:53.031Z,96809.97
2023-08-11T15:47:21.339Z,96811.00
2023-08-11T15:49:51.879Z,96813.64
2023-08-11T15:52:24.281Z,96816.66
2023-08-11T15:54:52.397Z,96815.88
2023-08-11T15:57:20.434Z,96811.90
2023-08-11T15:59:48.614Z,96813.45
2023-08-11T16:02:16.772Z,96808.95
2023-08-11T16:04:44.911Z,96809.69
2023-08-11T16:07:13.428Z,96806.28
2023-08-11T16:09:41.544Z,96801.86
2023-08-11T16:12:09.767Z,96800.52
2023-08-11T16:14:38.178Z,96801.09
2023-08-11T16:17:06.576Z,96795.04
2023-08-11T16:19:36.312Z,96800.89
2023-08-11T16:22:04.347Z,96801.00
2023-08-11T16:24:32.423Z,96799.74
2023-08-11T16:27:00.568Z,96801.23
2023-08-11T16:29:28.649Z,96803.48
2023-08-11T16:31:56.719Z,96807.67
2023-08-11T16:34:25.226Z,96807.08
2023-08-11T16:36:54.356Z,96809.69
2023-08-11T16:39:22.448Z,96811.11
2023-08-11T16:41:50.649Z,96808.63
2023-08-11T16:44:18.716Z,96806.00
2023-08-11T16:46:47.490Z,96809.27
2023-08-11T16:49:15.524Z,96808.64
2023-08-11T16:51:43.544Z,96808.16
2023-08-11T16:54:11.777Z,96808.73
2023-08-11T16:56:39.843Z,96805.13
2023-08-11T16:59:08.007Z,96803.78
2023-08-11T17:01:36.049Z,96807.62
2023-08-11T17:04:04.557Z,96809.77
2023-08-11T17:06:32.679Z,96808.25
2023-08-11T17:09:01.425Z,96805.80
2023-08-11T17:11:29.657Z,96806.02
2023-08-11T17:13:57.975Z,96813.42
2023-08-11T17:16:26.159Z,96811.81
2023-08-11T17:18:54.369Z,96812.27
2023-08-11T17:21:24.623Z,96815.19
2023-08-11T17:23:58.142Z,96815.67
2023-08-11T17:26:27.561Z,96813.75
2023-08-11T17:28:56.886Z,96814.88
2023-08-11T17:31:25.199Z,96814.66
2023-08-11T17:33:53.606Z,96820.07
2023-08-11T17:36:27.017Z,96819.52
2023-08-11T17:38:56.233Z,96824.80
2023-08-11T17:41:26.021Z,96826.02
2023-08-11T17:43:54.330Z,96825.69
2023-08-11T17:46:22.620Z,96826.64
2023-08-11T17:48:53.543Z,96826.39
2023-08-11T17:51:25.166Z,96832.06
2023-08-11T17:54:08.210Z,96831.63
2023-08-11T17:56:38.536Z,96831.44
2023-08-11T17:59:07.204Z,96835.60
2023-08-11T18:01:35.354Z,96836.59
2023-08-11T18:04:07.438Z,96837.73
2023-08-11T18:06:36.857Z,96839.56
2023-08-11T18:09:05.287Z,96841.51
2023-08-11T18:11:35.283Z,96846.56
2023-08-11T18:14:12.481Z,96849.07
2023-08-11T18:28:00.809Z,96856.61
2023-08-11T18:30:29.482Z,96861.40
2023-08-11T18:32:57.929Z,96859.89
2023-08-11T18:35:26.989Z,96859.75
2023-08-11T18:37:55.298Z,96864.38
2023-08-11T18:40:24.072Z,96866.48
2023-08-11T18:42:52.369Z,96867.89
2023-08-11T18:45:20.776Z,96863.90
2023-08-11T18:47:50.824Z,96863.70
2023-08-11T18:50:19.570Z,96863.83
2023-08-11T18:52:49.783Z,96860.20
2023-08-11T18:55:19.301Z,96861.48
2023-08-11T18:57:48.134Z,96864.05
2023-08-11T19:00:17.537Z,96867.84
2023-08-11T19:02:46.832Z,96867.66
2023-08-11T19:05:16.202Z,96864.89
2023-08-11T19:07:45.450Z,96869.33
2023-08-11T19:10:14.990Z,96866.08
2023-08-11T19:12:44.649Z,96865.93
2023-08-11T19:15:14.032Z,96864.63
2023-08-11T19:17:44.476Z,96867.62
2023-08-11T19:20:14.192Z,96869.02
2023-08-11T19:22:43.814Z,96869.89
2023-08-11T19:25:13.340Z,96869.14
2023-08-11T19:27:42.817Z,96870.72
2023-08-11T19:30:12.607Z,96868.89
2023-08-11T19:32:41.718Z,96870.70
2023-08-11T19:35:13.940Z,96869.48
2023-08-11T19:37:43.027Z,96867.52
2023-08-11T19:40:12.707Z,96872.52
2023-08-11T19:42:41.692Z,96873.82
2023-08-11T19:45:12.329Z,96871.80
2023-08-11T19:47:41.578Z,96874.30
2023-08-11T19:50:11.341Z,96874.17
2023-08-11T19:52:43.676Z,96874.71
2023-08-11T19:55:12.647Z,96872.58
2023-08-11T19:57:41.125Z,96872.61
2023-08-11T20:00:10.390Z,96872.23
2023-08-11T20:02:44.467Z,96874.17
2023-08-11T20:05:13.236Z,96876.92
2023-08-11T20:07:44.098Z,96876.04
2023-08-11T20:10:17.919Z,96875.14
2023-08-11T20:12:49.878Z,96875.20
2023-08-11T20:15:18.566Z,96871.96
2023-08-11T20:17:50.210Z,96873.81
2023-08-11T20:20:20.418Z,96872.23
2023-08-11T20:22:49.239Z,96872.67
2023-08-11T20:25:18.648Z,96876.14
2023-08-11T20:27:48.977Z,96872.56
2023-08-11T20:30:17.401Z,96874.55
2023-08-11T20:33:23.766Z,96873.95
2023-08-11T20:35:50.631Z,96874.22
2023-08-11T20:38:17.345Z,96875.90
2023-08-11T20:40:47.551Z,96876.23
2023-08-11T20:43:14.308Z,96872.28
2023-08-11T20:45:41.131Z,96876.70
2023-08-11T20:48:07.994Z,96876.61
2023-08-11T20:50:36.464Z,96880.32
2023-08-11T20:53:03.284Z,96880.09
2023-08-11T20:55:30.072Z,96874.89
2023-08-11T20:57:56.899Z,96871.33
2023-08-11T21:00:23.780Z,96870.52
2023-08-11T21:09:57.339Z,96870.08
2023-08-11T21:12:26.378Z,96868.42
2023-08-11T21:14:54.631Z,96865.31
2023-08-11T21:17:22.916Z,96860.04
2023-08-11T21:19:51.240Z,96859.61
2023-08-11T21:22:19.262Z,96854.02
2023-08-11T21:24:47.288Z,96856.63
2023-08-11T21:27:15.862Z,96858.02
2023-08-11T21:29:44.156Z,96853.08
2023-08-11T21:32:12.171Z,96856.30
2023-08-11T21:34:40.184Z,96850.98
2023-08-11T21:37:08.330Z,96845.67
2023-08-11T21:39:40.319Z,96843.27
2023-08-11T21:42:13.527Z,96844.73
2023-08-11T21:44:41.590Z,96851.38
2023-08-11T21:47:09.815Z,96853.33
2023-08-11T21:49:38.102Z,96857.92
2023-08-11T21:52:08.507Z,96857.41
2023-08-11T21:54:38.742Z,96855.45
2023-08-11T21:57:09.036Z,96859.58
2023-08-11T21:59:42.093Z,96860.38
2023-08-11T22:02:10.429Z,96861.23
2023-08-11T22:04:40.937Z,96861.41
2023-08-11T22:07:09.392Z,96861.34
2023-08-11T22:09:37.887Z,96861.40
2023-08-11T22:12:06.648Z,96860.23
2023-08-11T22:14:35.036Z,96860.61
2023-08-11T22:17:03.312Z,96854.90
2023-08-11T22:19:31.475Z,96856.48
2023-08-11T22:21:59.773Z,96858.40
2023-08-11T22:24:39.796Z,96854.77
2023-08-11T22:27:11.211Z,96855.38
2023-08-11T22:29:40.093Z,96857.02
2023-08-11T22:32:08.203Z,96851.81
2023-08-11T22:34:36.257Z,96856.84
2023-08-11T22:37:04.536Z,96854.73
2023-08-11T22:39:32.537Z,96855.63
2023-08-11T22:42:00.840Z,96857.55
2023-08-11T22:44:28.891Z,96857.95
2023-08-11T22:46:56.894Z,96856.08
2023-08-11T22:49:24.914Z,96853.92
2023-08-11T22:51:52.875Z,96854.70
2023-08-11T22:54:21.653Z,96858.48
2023-08-11T22:56:49.785Z,96855.21
2023-08-11T22:59:19.964Z,96857.02
2023-08-11T23:01:48.290Z,96855.34
2023-08-11T23:04:16.404Z,96852.74
2023-08-11T23:06:44.482Z,96848.50
2023-08-11T23:09:12.530Z,96847.05
2023-08-11T23:11:40.751Z,96844.55
2023-08-11T23:14:09.003Z,96838.55
2023-08-11T23:16:37.372Z,96839.11
2023-08-11T23:19:06.773Z,96839.84
2023-08-11T23:21:34.936Z,96839.65
2023-08-11T23:24:03.075Z,96841.49
2023-08-11T23:26:31.175Z,96842.54
2023-08-11T23:28:59.263Z,96843.70
2023-08-11T23:31:27.430Z,96840.11
2023-08-11T23:33:55.675Z,96840.73
2023-08-11T23:36:23.803Z,96836.64
2023-08-11T23:38:51.952Z,96838.46
2023-08-11T23:41:20.180Z,96835.61
2023-08-11T23:43:48.359Z,96833.16
2023-08-11T23:46:16.482Z,96834.35
2023-08-11T23:48:44.620Z,96830.06
2023-08-11T23:51:12.760Z,96832.86
2023-08-11T23:53:40.976Z,96833.46
2023-08-11T23:56:09.697Z,96831.95
2023-08-11T23:58:37.767Z,96830.95
